Time;durP1;ratioP1;P1;durP2;ratioP2;P2;SDS_P1;SDS_P2;PMS_P1;PMS_P2;Temp;Humidity;BMP_temperature;BMP_pressure;BME280_temperature;BME280_humidity;BME280_pressure;Samples;Min_cycle;Max_cycle;Signal;HPM_P1;HPM_P2
2022/07/21 00:00:22;;;;;;;6.57;3.90;;;21.20;98.00;;;;;;5052470;28;20512;-65
2022/07/21 00:02:49;;;;;;;5.33;3.93;;;21.10;98.00;;;;;;5052336;28;20454;-66
2022/07/21 00:05:24;;;;;;;5.83;3.73;;;21.10;98.00;;;;;;5052330;28;20466;-66
2022/07/21 00:07:51;;;;;;;5.33;3.70;;;21.10;98.00;;;;;;5051034;28;20457;-66
2022/07/21 00:10:22;;;;;;;8.80;3.90;;;21.00;98.00;;;;;;5052007;28;20967;-65
2022/07/21 00:12:51;;;;;;;7.73;4.60;;;21.10;98.00;;;;;;5052150;28;20863;-65
2022/07/21 00:15:20;;;;;;;5.83;3.83;;;21.20;98.00;;;;;;5051952;28;20461;-66
2022/07/21 00:17:47;;;;;;;7.20;3.47;;;21.10;98.00;;;;;;5051964;28;20465;-65
2022/07/21 00:20:16;;;;;;;6.33;3.90;;;21.10;98.00;;;;;;5051834;28;20485;-66
2022/07/21 00:22:43;;;;;;;5.43;3.90;;;20.90;98.00;;;;;;5051819;28;20466;-65
2022/07/21 00:25:13;;;;;;;4.90;3.43;;;20.70;98.00;;;;;;5051688;28;20456;-66
2022/07/21 00:27:40;;;;;;;9.03;4.87;;;20.70;98.00;;;;;;5051805;28;20867;-66
2022/07/21 00:30:10;;;;;;;6.80;4.53;;;20.70;98.00;;;;;;5051582;28;20983;-65
2022/07/21 00:32:38;;;;;;;5.90;3.50;;;20.80;98.00;;;;;;5051714;28;20548;-66
2022/07/21 00:35:06;;;;;;;5.93;3.53;;;20.70;98.00;;;;;;5051753;28;20450;-65
2022/07/21 00:37:33;;;;;;;6.00;3.30;;;20.60;98.00;;;;;;5051636;28;20458;-66
2022/07/21 00:40:00;;;;;;;6.90;4.07;;;20.60;98.00;;;;;;5051422;28;20493;-66
2022/07/21 00:42:29;;;;;;;6.00;3.90;;;20.60;98.00;;;;;;5051556;28;20458;-65
2022/07/21 00:44:58;;;;;;;5.87;3.47;;;20.60;98.00;;;;;;5051641;28;20454;-66
2022/07/21 00:47:28;;;;;;;6.00;3.63;;;20.60;98.00;;;;;;5051311;28;20976;-66
2022/07/21 00:49:57;;;;;;;7.17;4.20;;;20.60;98.00;;;;;;5051557;28;20446;-65
2022/07/21 00:52:24;;;;;;;5.60;3.00;;;20.40;98.00;;;;;;5051297;28;20465;-65
2022/07/21 00:54:52;;;;;;;7.90;3.97;;;20.50;98.00;;;;;;5051449;28;20458;-66
2022/07/21 00:57:19;;;;;;;8.50;4.60;;;20.80;98.00;;;;;;5050874;28;20454;-65
2022/07/21 00:59:46;;;;;;;7.50;4.90;;;20.70;98.00;;;;;;5051401;28;20493;-66
2022/07/21 01:02:15;;;;;;;6.57;3.40;;;20.60;98.00;;;;;;5051641;28;20458;-66
2022/07/21 01:04:44;;;;;;;7.90;4.13;;;20.50;98.00;;;;;;5050023;28;20999;-65
2022/07/21 01:07:11;;;;;;;5.30;3.70;;;20.40;98.00;;;;;;5051100;28;20457;-66
2022/07/21 01:09:38;;;;;;;7.67;3.80;;;20.50;98.00;;;;;;5051142;28;20753;-65
2022/07/21 01:12:06;;;;;;;6.80;3.73;;;20.50;98.00;;;;;;5050989;28;20450;-66
2022/07/21 01:14:34;;;;;;;7.53;3.40;;;20.40;98.00;;;;;;5051135;28;20453;-65
2022/07/21 01:17:03;;;;;;;4.47;3.20;;;20.40;98.00;;;;;;5051097;28;20458;-65
2022/07/21 01:19:31;;;;;;;6.73;4.10;;;20.40;98.00;;;;;;5051242;28;20458;-65
2022/07/21 01:22:00;;;;;;;8.40;4.40;;;20.30;98.00;;;;;;5049569;28;20469;-65
2022/07/21 01:24:27;;;;;;;7.53;3.90;;;20.20;98.00;;;;;;5050986;28;20453;-66
2022/07/21 01:26:55;;;;;;;7.13;4.07;;;20.30;98.00;;;;;;5051107;28;20832;-65
2022/07/21 01:29:23;;;;;;;5.30;3.63;;;20.30;98.00;;;;;;5050864;28;20468;-66
2022/07/21 01:31:51;;;;;;;5.77;3.90;;;20.40;98.00;;;;;;5051195;28;20462;-66
2022/07/21 01:34:18;;;;;;;6.60;3.70;;;20.40;98.00;;;;;;5050822;28;20453;-65
2022/07/21 01:36:46;;;;;;;7.13;4.00;;;20.40;98.00;;;;;;5051016;28;20489;-65
2022/07/21 01:42:00;;;;;;;8.63;4.60;;;20.40;98.00;;;;;;5051285;28;20496;-66
2022/07/21 01:44:27;;;;;;;6.40;3.90;;;20.40;98.00;;;;;;5050792;28;20461;-65
2022/07/21 01:46:54;;;;;;;5.77;3.63;;;20.30;98.00;;;;;;5049453;28;20460;-66
2022/07/21 01:49:22;;;;;;;4.93;3.63;;;20.40;98.00;;;;;;5050747;28;20449;-66
2022/07/21 01:51:51;;;;;;;5.00;3.40;;;20.50;98.00;;;;;;5050736;28;20511;-66
2022/07/21 01:54:20;;;;;;;5.20;3.57;;;20.60;98.00;;;;;;5050672;28;20470;-66
2022/07/21 01:56:47;;;;;;;7.20;3.90;;;20.60;98.00;;;;;;5050793;28;20458;-66
2022/07/21 01:59:14;;;;;;;4.77;3.50;;;20.50;98.00;;;;;;5050866;28;20499;-66
2022/07/21 02:01:41;;;;;;;5.80;3.50;;;20.50;98.00;;;;;;5050803;28;20490;-66
2022/07/21 02:04:08;;;;;;;6.53;3.80;;;20.60;98.00;;;;;;5050795;28;20943;-65
2022/07/21 02:06:36;;;;;;;6.07;4.07;;;20.50;98.00;;;;;;5050601;28;20468;-66
2022/07/21 02:09:04;;;;;;;7.67;4.27;;;20.40;98.00;;;;;;5052248;28;20465;-65
2022/07/21 02:11:33;;;;;;;5.70;3.50;;;20.40;98.00;;;;;;5053069;28;20457;-66
2022/07/21 02:14:01;;;;;;;6.10;3.60;;;20.40;98.00;;;;;;5054367;28;20460;-65
2022/07/21 02:16:28;;;;;;;7.70;4.40;;;20.40;98.00;;;;;;5054249;28;20460;-66
2022/07/21 02:18:56;;;;;;;7.13;4.50;;;20.50;98.00;;;;;;5053081;28;20465;-66
2022/07/21 02:21:23;;;;;;;8.20;4.33;;;20.70;98.00;;;;;;5053868;28;20547;-66
2022/07/21 02:23:50;;;;;;;7.60;4.40;;;20.80;98.00;;;;;;5054276;28;20460;-65
2022/07/21 02:26:17;;;;;;;7.57;4.30;;;20.90;98.00;;;;;;5054076;28;20943;-66
2022/07/21 02:28:46;;;;;;;7.13;4.10;;;21.00;98.00;;;;;;5054136;28;20450;-65
2022/07/21 02:31:13;;;;;;;8.10;4.90;;;21.00;98.00;;;;;;5053998;28;20454;-66
2022/07/21 02:33:40;;;;;;;7.47;4.30;;;21.00;98.00;;;;;;5053804;28;20974;-65
2022/07/21 02:36:08;;;;;;;7.33;4.10;;;20.80;98.00;;;;;;5053933;28;20460;-66
2022/07/21 02:38:36;;;;;;;9.20;4.77;;;20.70;98.00;;;;;;5053794;28;20461;-66
2022/07/21 02:41:03;;;;;;;6.00;3.70;;;20.70;98.00;;;;;;5053667;28;20478;-66
2022/07/21 02:43:33;;;;;;;8.10;4.70;;;20.70;98.00;;;;;;5053952;28;20456;-65
2022/07/21 02:46:01;;;;;;;9.20;4.33;;;20.90;98.00;;;;;;5053620;28;20508;-65
2022/07/21 02:48:29;;;;;;;7.20;4.93;;;21.00;98.00;;;;;;5053744;28;20462;-65
2022/07/21 02:50:57;;;;;;;8.67;4.50;;;21.10;98.00;;;;;;5053536;28;20509;-66
2022/07/21 02:53:24;;;;;;;6.40;3.90;;;21.20;98.00;;;;;;5053458;28;20454;-65
2022/07/21 02:55:53;;;;;;;7.70;4.23;;;21.20;98.00;;;;;;5053595;28;20464;-66
2022/07/21 02:58:22;;;;;;;7.60;4.37;;;21.10;98.00;;;;;;5053675;28;20839;-66
2022/07/21 03:00:51;;;;;;;9.80;4.50;;;21.00;98.00;;;;;;5053528;28;20477;-66
2022/07/21 03:03:20;;;;;;;7.23;3.73;;;21.00;98.00;;;;;;5053591;28;20828;-66
2022/07/21 03:05:49;;;;;;;7.70;4.57;;;20.90;98.00;;;;;;5053264;28;20465;-66
2022/07/21 03:08:17;;;;;;;5.67;3.33;;;20.80;98.00;;;;;;5053420;28;20469;-66
2022/07/21 03:10:45;;;;;;;12.40;5.20;;;20.80;98.00;;;;;;5053549;28;20458;-65
2022/07/21 03:13:12;;;;;;;8.43;4.30;;;20.70;98.00;;;;;;5053297;28;20458;-65
2022/07/21 03:15:39;;;;;;;6.80;3.90;;;20.70;98.00;;;;;;5051858;28;20462;-66
2022/07/21 03:18:07;;;;;;;9.10;4.17;;;20.70;98.00;;;;;;5053156;28;20457;-66
2022/07/21 03:20:37;;;;;;;7.00;4.20;;;20.80;98.00;;;;;;5052321;28;20474;-65
2022/07/21 03:23:05;;;;;;;8.20;5.10;;;20.90;98.00;;;;;;5053132;28;20465;-65
2022/07/21 03:25:32;;;;;;;8.07;4.10;;;20.90;98.00;;;;;;5052969;28;20466;-66
2022/07/21 03:28:00;;;;;;;9.33;4.80;;;21.00;98.00;;;;;;5053072;28;20823;-66
2022/07/21 03:30:28;;;;;;;7.63;4.80;;;21.00;98.00;;;;;;5052905;28;20939;-66
2022/07/21 03:32:55;;;;;;;10.17;4.50;;;21.00;98.00;;;;;;5052938;28;20477;-66
2022/07/21 03:35:23;;;;;;;9.57;4.93;;;21.00;98.00;;;;;;5052763;28;20480;-66
2022/07/21 03:37:53;;;;;;;8.03;4.50;;;21.10;98.00;;;;;;5052859;28;20456;-66
2022/07/21 03:40:24;;;;;;;8.23;4.90;;;21.00;98.00;;;;;;5052592;28;20515;-66
2022/07/21 03:42:51;;;;;;;17.07;4.47;;;21.00;98.00;;;;;;5052749;28;20458;-66
2022/07/21 03:45:20;;;;;;;16.00;4.20;;;21.00;98.00;;;;;;5052629;28;21023;-65
2022/07/21 03:47:48;;;;;;;7.03;4.10;;;21.10;98.00;;;;;;5052574;28;20461;-66
2022/07/21 03:50:17;;;;;;;7.40;4.40;;;21.20;98.00;;;;;;5052554;28;20829;-66
2022/07/21 03:52:44;;;;;;;6.77;3.87;;;21.30;98.00;;;;;;5052374;28;20944;-66
2022/07/21 03:55:14;;;;;;;4.77;3.33;;;21.30;98.00;;;;;;5051265;28;20465;-65
2022/07/21 03:57:45;;;;;;;7.80;4.37;;;21.30;98.00;;;;;;5052416;28;20558;-66
2022/07/21 04:00:15;;;;;;;8.67;4.70;;;21.10;98.00;;;;;;5052813;28;20515;-66
2022/07/21 04:02:44;;;;;;;5.97;3.40;;;21.10;98.00;;;;;;5052322;28;20852;-65
2022/07/21 04:05:12;;;;;;;5.70;3.33;;;21.30;98.00;;;;;;5052337;28;20458;-66
2022/07/21 04:07:42;;;;;;;16.83;4.50;;;21.30;98.00;;;;;;5052159;28;20458;-66
2022/07/21 04:10:12;;;;;;;7.50;4.10;;;21.30;98.00;;;;;;5052168;28;20556;-66
2022/07/21 04:12:40;;;;;;;6.03;3.83;;;21.20;98.00;;;;;;5051904;28;20462;-66
2022/07/21 04:15:09;;;;;;;7.73;3.37;;;21.30;98.00;;;;;;5052255;28;20462;-65
2022/07/21 04:17:37;;;;;;;5.40;3.63;;;21.20;98.00;;;;;;5051923;28;20454;-65
2022/07/21 04:20:05;;;;;;;5.70;3.90;;;21.30;98.00;;;;;;5051903;28;20503;-66
2022/07/21 04:22:33;;;;;;;6.33;3.40;;;21.20;98.00;;;;;;5051495;28;20501;-66
2022/07/21 04:25:00;;;;;;;5.60;3.40;;;21.20;98.00;;;;;;5051846;28;20450;-65
2022/07/21 04:27:29;;;;;;;6.70;4.30;;;21.30;98.00;;;;;;5050359;28;20923;-65
2022/07/21 04:29:57;;;;;;;6.57;3.50;;;21.30;98.00;;;;;;5051858;28;20458;-66
2022/07/21 04:32:24;;;;;;;5.23;3.53;;;21.30;98.00;;;;;;5050816;28;20449;-65
2022/07/21 04:34:51;;;;;;;5.27;3.20;;;21.10;98.00;;;;;;5051784;28;20456;-65
2022/07/21 04:37:18;;;;;;;5.77;3.90;;;20.90;98.00;;;;;;5051543;28;20461;-65
2022/07/21 04:39:46;;;;;;;5.53;3.50;;;20.90;98.00;;;;;;5051693;28;20515;-66
2022/07/21 04:42:16;;;;;;;6.60;3.70;;;20.90;98.00;;;;;;5050380;28;20490;-66
2022/07/21 04:44:44;;;;;;;5.10;4.00;;;20.80;98.00;;;;;;5051535;28;20452;-66
2022/07/21 04:47:12;;;;;;;6.70;4.33;;;20.70;98.00;;;;;;5051529;28;20513;-66
2022/07/21 04:49:39;;;;;;;4.70;3.43;;;20.60;98.00;;;;;;5050030;28;20829;-65
2022/07/21 04:52:06;;;;;;;7.80;4.20;;;20.60;98.00;;;;;;5051154;28;20453;-65
2022/07/21 04:54:36;;;;;;;4.80;3.27;;;20.60;98.00;;;;;;5051434;28;20465;-66
2022/07/21 04:57:05;;;;;;;4.03;2.73;;;20.60;98.00;;;;;;5051400;28;20453;-66
2022/07/21 04:59:32;;;;;;;5.73;3.27;;;20.70;98.00;;;;;;5051577;28;20484;-66
2022/07/21 05:02:02;;;;;;;3.90;2.97;;;20.70;98.00;;;;;;5051512;28;20486;-66
2022/07/21 05:04:29;;;;;;;6.17;3.43;;;20.70;98.00;;;;;;5051278;28;20461;-65
2022/07/21 05:06:56;;;;;;;7.53;3.67;;;20.80;98.00;;;;;;5051603;28;20458;-65
2022/07/21 05:09:23;;;;;;;5.30;3.60;;;20.90;98.00;;;;;;5051208;28;20453;-66
2022/07/21 05:11:50;;;;;;;5.23;3.60;;;20.90;98.00;;;;;;5051101;28;20465;-66
2022/07/21 05:14:18;;;;;;;4.70;2.73;;;20.90;98.00;;;;;;5051317;28;20827;-66
2022/07/21 05:16:45;;;;;;;4.90;3.10;;;21.00;98.00;;;;;;5050975;28;20469;-66
2022/07/21 05:19:13;;;;;;;4.23;3.07;;;21.10;98.00;;;;;;5050971;28;20457;-65
2022/07/21 05:21:40;;;;;;;7.43;3.77;;;21.00;98.00;;;;;;5050689;28;20490;-66
2022/07/21 05:24:08;;;;;;;5.47;3.17;;;20.90;98.00;;;;;;5050752;28;20837;-66
2022/07/21 05:26:36;;;;;;;4.63;3.50;;;21.00;98.00;;;;;;5050818;28;20457;-66
2022/07/21 05:29:05;;;;;;;4.77;3.03;;;21.00;98.00;;;;;;5051095;28;20472;-66
2022/07/21 05:31:32;;;;;;;4.67;3.40;;;21.00;98.00;;;;;;5033440;28;20519;-66
2022/07/21 05:33:59;;;;;;;4.90;2.97;;;21.00;98.00;;;;;;5050898;28;20458;-66
2022/07/21 05:36:28;;;;;;;4.47;2.80;;;21.10;98.00;;;;;;5049580;28;20450;-62
2022/07/21 05:38:55;;;;;;;7.97;3.83;;;21.20;98.00;;;;;;5050947;28;20972;-62
2022/07/21 05:41:22;;;;;;;4.67;3.17;;;21.40;98.00;;;;;;5049550;28;20485;-62
2022/07/21 05:43:49;;;;;;;5.83;3.77;;;21.40;98.00;;;;;;5053855;28;20454;-62
2022/07/21 05:46:16;;;;;;;6.10;3.80;;;21.30;98.00;;;;;;5054792;28;20461;-62
2022/07/21 05:48:44;;;;;;;7.43;3.97;;;21.40;98.00;;;;;;5054770;28;20458;-62
2022/07/21 05:51:11;;;;;;;5.30;3.40;;;21.40;98.00;;;;;;5054840;28;20557;-62
2022/07/21 05:53:39;;;;;;;6.10;4.07;;;21.30;98.00;;;;;;5054835;28;20461;-62
2022/07/21 05:56:07;;;;;;;5.87;3.83;;;21.20;98.00;;;;;;5054814;28;20458;-62
2022/07/21 05:58:34;;;;;;;6.97;3.93;;;21.30;98.00;;;;;;5054660;28;20511;-62
2022/07/21 06:01:12;;;;;;;4.70;3.23;;;21.40;98.00;;;;;;5054731;28;20518;-62
2022/07/21 06:03:42;;;;;;;5.33;3.03;;;21.30;98.00;;;;;;5054748;28;20453;-62
2022/07/21 06:06:12;;;;;;;5.47;3.30;;;21.50;98.00;;;;;;5054634;28;20457;-62
2022/07/21 06:08:43;;;;;;;5.13;3.37;;;21.50;98.00;;;;;;5054388;28;20458;-62
2022/07/21 06:11:11;;;;;;;5.37;3.63;;;21.60;98.00;;;;;;5054336;28;20940;-62
2022/07/21 06:13:39;;;;;;;6.47;3.67;;;21.70;98.00;;;;;;5054403;28;20931;-62
2022/07/21 06:16:07;;;;;;;7.30;3.70;;;21.90;98.00;;;;;;5054238;28;20457;-62
2022/07/21 06:18:35;;;;;;;8.67;4.07;;;21.90;98.00;;;;;;5054120;28;20461;-62
2022/07/21 06:21:02;;;;;;;9.50;4.67;;;22.00;98.00;;;;;;5054346;28;20500;-65
2022/07/21 06:23:31;;;;;;;8.67;4.27;;;22.10;98.00;;;;;;5054138;28;20486;-65
2022/07/21 06:25:59;;;;;;;6.50;4.10;;;22.30;98.00;;;;;;5054214;28;20450;-65
2022/07/21 06:28:28;;;;;;;7.73;4.37;;;22.50;98.00;;;;;;5054001;28;20453;-65
2022/07/21 06:30:55;;;;;;;5.67;3.77;;;22.60;98.00;;;;;;5053385;28;20956;-65
2022/07/21 06:33:23;;;;;;;8.47;3.80;;;22.70;98.00;;;;;;5054014;28;20453;-65
2022/07/21 06:35:50;;;;;;;5.97;3.60;;;22.70;98.00;;;;;;5053846;28;20464;-65
2022/07/21 06:38:17;;;;;;;8.00;4.17;;;22.80;98.00;;;;;;5053788;28;20524;-65
2022/07/21 06:40:44;;;;;;;7.53;4.07;;;23.00;98.00;;;;;;5053703;28;20461;-65
2022/07/21 06:43:13;;;;;;;7.27;4.60;;;23.20;98.00;;;;;;5053610;28;20496;-66
2022/07/21 06:45:40;;;;;;;9.00;4.10;;;23.40;98.00;;;;;;5053716;28;20831;-65
2022/07/21 06:48:09;;;;;;;10.77;3.80;;;23.50;98.00;;;;;;5053880;28;20881;-65
2022/07/21 06:50:37;;;;;;;5.63;3.97;;;23.70;98.00;;;;;;5053937;28;20462;-65
2022/07/21 06:53:04;;;;;;;11.40;5.50;;;23.90;98.00;;;;;;5053678;28;20450;-65
2022/07/21 06:55:32;;;;;;;6.90;4.23;;;24.10;98.00;;;;;;5052849;28;20960;-66
2022/07/21 06:57:59;;;;;;;8.03;4.60;;;24.20;98.00;;;;;;5053686;28;20450;-65
2022/07/21 07:00:28;;;;;;;9.33;4.30;;;24.30;98.00;;;;;;5052529;28;20450;-65
2022/07/21 07:02:56;;;;;;;8.50;4.70;;;24.00;98.00;;;;;;5053504;28;20481;-65
2022/07/21 07:05:23;;;;;;;7.53;4.50;;;23.80;98.00;;;;;;5035837;28;20960;-66
2022/07/21 07:07:50;;;;;;;7.70;4.23;;;23.70;98.00;;;;;;5053389;28;20457;-65
2022/07/21 07:10:18;;;;;;;5.00;3.70;;;23.70;98.00;;;;;;5053383;28;20454;-65
2022/07/21 07:12:45;;;;;;;6.50;3.90;;;24.00;98.00;;;;;;5052916;28;20482;-65
2022/07/21 07:15:13;;;;;;;7.30;3.80;;;24.20;98.00;;;;;;5043591;28;20463;-65
2022/07/21 07:17:42;;;;;;;6.70;4.30;;;24.10;98.00;;;;;;5038853;28;20466;-64
2022/07/21 07:20:10;;;;;;;9.70;4.77;;;24.40;98.00;;;;;;5032993;28;20454;-62
2022/07/21 07:22:37;;;;;;;8.27;4.43;;;24.50;98.00;;;;;;5040598;28;20517;-62
2022/07/21 07:25:05;;;;;;;8.73;4.47;;;24.50;98.00;;;;;;5038809;28;20464;-62
2022/07/21 07:27:32;;;;;;;9.87;4.80;;;24.40;98.00;;;;;;5034002;28;20466;-62
2022/07/21 07:29:59;;;;;;;7.50;4.20;;;24.30;98.00;;;;;;5041229;28;20470;-62
2022/07/21 07:32:26;;;;;;;6.90;3.90;;;24.20;98.00;;;;;;5039024;28;20462;-60
2022/07/21 07:34:55;;;;;;;6.90;4.10;;;23.90;98.00;;;;;;5032129;28;20462;-62
2022/07/21 07:37:22;;;;;;;8.20;4.50;;;23.50;98.00;;;;;;5049247;28;20491;-62
2022/07/21 07:39:49;;;;;;;9.07;4.40;;;23.60;98.00;;;;;;5041826;28;20462;-62
2022/07/21 07:42:16;;;;;;;9.43;5.03;;;23.50;98.00;;;;;;5048745;28;20857;-62
2022/07/21 07:44:45;;;;;;;8.77;4.53;;;23.60;98.00;;;;;;5048461;28;20457;-62
2022/07/21 07:47:12;;;;;;;8.60;4.80;;;23.70;98.00;;;;;;5031921;28;20450;-66
2022/07/21 07:49:39;;;;;;;6.33;3.73;;;23.70;98.00;;;;;;5037416;28;20450;-64
2022/07/21 07:52:33;;;;;;;8.13;4.33;;;24.10;98.00;;;;;;5049539;28;20462;-62
2022/07/21 07:55:03;;;;;;;5.90;4.07;;;24.30;98.00;;;;;;5032614;28;20482;-61
2022/07/21 07:57:31;;;;;;;7.60;4.10;;;24.40;98.00;;;;;;5041066;28;20459;-62
2022/07/21 07:59:59;;;;;;;6.50;4.37;;;24.50;98.00;;;;;;5045706;28;20462;-62
2022/07/21 08:02:30;;;;;;;6.50;4.43;;;24.40;98.00;;;;;;5035899;28;20832;-62
2022/07/21 08:04:57;;;;;;;7.90;4.63;;;24.20;98.00;;;;;;5030619;28;20459;-61
2022/07/21 08:07:24;;;;;;;7.70;4.60;;;24.00;98.00;;;;;;5030797;28;20455;-62
2022/07/21 08:09:53;;;;;;;7.50;4.30;;;23.90;98.00;;;;;;5029667;28;20457;-62
2022/07/21 08:12:21;;;;;;;8.70;4.73;;;24.00;98.00;;;;;;5029694;28;20458;-62
2022/07/21 08:14:48;;;;;;;9.27;3.83;;;24.10;98.00;;;;;;5029670;28;20474;-62
2022/07/21 08:17:16;;;;;;;8.97;4.07;;;23.90;98.00;;;;;;5045188;28;20458;-61
2022/07/21 08:19:43;;;;;;;13.23;4.23;;;23.90;98.00;;;;;;5048632;28;21035;-62
2022/07/21 08:22:13;;;;;;;7.40;4.10;;;23.80;98.00;;;;;;5035001;28;20474;-62
2022/07/21 08:24:40;;;;;;;6.90;3.97;;;23.80;98.00;;;;;;5031845;28;20462;-61
2022/07/21 08:27:21;;;;;;;7.50;4.20;;;24.10;98.00;;;;;;5044239;28;20450;-61
2022/07/21 08:29:49;;;;;;;7.30;4.00;;;24.20;98.00;;;;;;5039554;28;20458;-61
2022/07/21 08:32:18;;;;;;;8.73;4.60;;;24.20;98.00;;;;;;5045940;28;20534;-61
2022/07/21 08:34:45;;;;;;;5.93;4.20;;;24.10;98.00;;;;;;5040237;28;20528;-61
2022/07/21 08:37:12;;;;;;;6.93;4.23;;;23.90;98.00;;;;;;5033915;28;20466;-61
2022/07/21 08:39:39;;;;;;;8.33;5.00;;;23.80;98.00;;;;;;5030464;28;20463;-61
2022/07/21 08:42:08;;;;;;;6.20;3.70;;;23.60;98.00;;;;;;5045478;28;20454;-62
2022/07/21 08:44:37;;;;;;;6.83;4.07;;;23.80;98.00;;;;;;5039833;28;20866;-61
2022/07/21 08:47:06;;;;;;;4.53;3.13;;;24.10;98.00;;;;;;5049062;28;20464;-61
2022/07/21 08:49:35;;;;;;;10.30;4.03;;;24.50;98.00;;;;;;5034118;28;20540;-61
2022/07/21 08:52:03;;;;;;;6.70;4.10;;;24.80;98.00;;;;;;5036359;28;20462;-61
2022/07/21 08:54:32;;;;;;;9.23;4.63;;;25.00;98.00;;;;;;5049080;28;20457;-61
2022/07/21 08:56:59;;;;;;;6.27;4.10;;;25.00;98.00;;;;;;5032429;28;20886;-61
2022/07/21 08:59:26;;;;;;;8.87;4.00;;;24.70;98.00;;;;;;5031719;28;20454;-61
2022/07/21 09:01:55;;;;;;;7.43;4.63;;;24.70;98.00;;;;;;5032129;28;20532;-62
2022/07/21 09:04:25;;;;;;;7.60;3.77;;;24.70;98.00;;;;;;5031666;28;20490;-62
2022/07/21 09:06:55;;;;;;;9.90;4.80;;;24.60;98.00;;;;;;5031717;28;20463;-62
2022/07/21 09:09:23;;;;;;;6.43;4.13;;;24.50;98.00;;;;;;5031979;28;20458;-62
2022/07/21 09:11:51;;;;;;;8.43;4.10;;;24.40;98.00;;;;;;5032161;28;20520;-62
2022/07/21 09:14:21;;;;;;;6.07;3.83;;;24.10;98.00;;;;;;5032071;28;20949;-62
2022/07/21 09:16:51;;;;;;;6.27;3.90;;;24.10;98.00;;;;;;5031145;28;20458;-62
2022/07/21 09:19:22;;;;;;;6.80;3.73;;;24.10;98.00;;;;;;5031921;28;20463;-62
2022/07/21 09:21:50;;;;;;;7.67;4.33;;;24.20;98.00;;;;;;5031650;28;20995;-62
2022/07/21 09:24:21;;;;;;;6.73;4.00;;;24.10;98.00;;;;;;5031905;28;20490;-62
2022/07/21 09:27:08;;;;;;;7.13;4.00;;;24.10;98.00;;;;;;5031719;28;20467;-62
2022/07/21 09:29:42;;;;;;;8.17;4.73;;;24.40;98.00;;;;;;5031829;28;20462;-62
2022/07/21 09:32:24;;;;;;;7.00;4.60;;;24.70;98.00;;;;;;5031716;28;20458;-62
2022/07/21 09:34:54;;;;;;;4.83;3.27;;;24.80;98.00;;;;;;5031722;28;20831;-62
2022/07/21 09:37:23;;;;;;;6.30;3.73;;;25.00;98.00;;;;;;5031775;28;20478;-62
2022/07/21 09:39:52;;;;;;;7.97;4.13;;;25.20;98.00;;;;;;5032009;28;20455;-62
2022/07/21 09:42:23;;;;;;;7.20;4.27;;;25.30;98.00;;;;;;5031420;28;20455;-62
2022/07/21 09:44:55;;;;;;;8.17;3.90;;;25.40;98.00;;;;;;5031797;28;20458;-62
2022/07/21 09:47:25;;;;;;;10.37;3.90;;;25.70;98.00;;;;;;5031596;28;20466;-62
2022/07/21 09:49:55;;;;;;;8.33;4.60;;;25.90;98.00;;;;;;5030508;28;20466;-62
2022/07/21 09:52:29;;;;;;;9.40;4.23;;;25.80;98.00;;;;;;5031449;28;20458;-62
2022/07/21 09:54:57;;;;;;;6.70;3.90;;;26.00;98.00;;;;;;5030947;28;20454;-62
2022/07/21 09:57:24;;;;;;;7.90;4.10;;;26.20;98.00;;;;;;5030987;28;20463;-63
2022/07/21 09:59:55;;;;;;;7.17;4.23;;;26.20;98.00;;;;;;5046290;28;20458;-62
2022/07/21 10:02:24;;;;;;;6.37;3.73;;;26.30;98.00;;;;;;5051144;28;20947;-62
2022/07/21 10:05:00;;;;;;;6.73;3.90;;;26.20;98.00;;;;;;5051616;28;20465;-62
2022/07/21 10:07:28;;;;;;;6.13;3.93;;;26.10;98.00;;;;;;5051472;28;20816;-62
2022/07/21 10:09:57;;;;;;;8.10;4.20;;;25.70;98.00;;;;;;5051338;28;20464;-62
2022/07/21 10:12:28;;;;;;;7.67;3.87;;;25.50;98.00;;;;;;5051314;28;20521;-65
2022/07/21 10:14:56;;;;;;;6.20;3.83;;;25.80;98.00;;;;;;5051108;28;20469;-62
2022/07/21 10:17:25;;;;;;;5.20;3.57;;;26.10;98.00;;;;;;5050552;28;20458;-66
2022/07/21 10:20:07;;;;;;;6.50;4.10;;;26.30;98.00;;;;;;5051536;28;20871;-66
2022/07/21 10:22:49;;;;;;;8.50;3.80;;;26.60;98.00;;;;;;5050791;28;20824;-67
2022/07/21 10:25:17;;;;;;;6.17;3.50;;;27.00;98.00;;;;;;5051261;28;20461;-66
2022/07/21 10:28:13;;;;;;;6.33;3.77;;;27.20;98.00;;;;;;5050817;28;20466;-67
2022/07/21 10:30:42;;;;;;;6.90;3.17;;;27.70;97.30;;;;;;5053790;28;20396;-66
2022/07/21 10:33:09;;;;;;;4.30;3.10;;;27.70;97.00;;;;;;5054124;28;20222;-64
2022/07/21 10:35:41;;;;;;;12.20;4.63;;;27.90;98.00;;;;;;5054764;28;20453;-66
2022/07/21 10:38:28;;;;;;;6.57;3.90;;;28.10;96.10;;;;;;5054894;28;20458;-64
2022/07/21 10:40:56;;;;;;;5.10;3.40;;;28.00;95.80;;;;;;5054740;28;20456;-64
2022/07/21 10:43:44;;;;;;;5.57;3.43;;;27.80;93.70;;;;;;5054517;28;20576;-63
2022/07/21 10:46:40;;;;;;;6.80;4.40;;;27.60;96.00;;;;;;5053455;28;20540;-62
2022/07/21 10:49:09;;;;;;;8.90;3.90;;;27.60;95.90;;;;;;5054554;28;20972;-63
2022/07/21 10:51:39;;;;;;;5.47;3.60;;;27.50;95.30;;;;;;5054575;28;20528;-63
2022/07/21 10:54:34;;;;;;;5.10;3.70;;;27.40;95.90;;;;;;5054574;28;20458;-64
2022/07/21 10:57:27;;;;;;;5.40;3.33;;;27.70;98.00;;;;;;5054545;28;20457;-64
2022/07/21 11:00:27;;;;;;;5.57;3.70;;;27.80;95.50;;;;;;5054765;28;20470;-64
2022/07/21 11:02:56;;;;;;;4.67;3.00;;;28.00;93.90;;;;;;5012287;28;20502;-63
2022/07/21 11:05:25;;;;;;;5.50;3.50;;;28.20;92.60;;;;;;5045772;28;20466;-63
2022/07/21 11:08:20;;;;;;;4.47;3.00;;;28.10;93.10;;;;;;5054015;28;20515;-65
2022/07/21 11:10:49;;;;;;;5.20;2.97;;;28.10;90.50;;;;;;5053970;28;20498;-63
2022/07/21 11:13:19;;;;;;;4.40;3.37;;;28.00;89.60;;;;;;5053848;28;20971;-64
2022/07/21 11:16:04;;;;;;;5.00;3.23;;;27.60;92.10;;;;;;5053055;28;20545;-63
2022/07/21 11:18:32;;;;;;;5.00;3.13;;;27.80;91.80;;;;;;5053861;28;20457;-63
2022/07/21 11:21:06;;;;;;;5.17;3.13;;;27.90;90.50;;;;;;5054047;28;20469;-65
2022/07/21 11:23:42;;;;;;;4.10;2.70;;;28.00;90.70;;;;;;5052641;28;20481;-63
2022/07/21 11:26:10;;;;;;;5.87;3.40;;;28.20;91.30;;;;;;5053863;28;20462;-62
2022/07/21 11:28:38;;;;;;;4.43;2.77;;;28.30;87.40;;;;;;5053847;28;20454;-63
2022/07/21 11:31:10;;;;;;;4.83;3.10;;;28.50;86.50;;;;;;5053683;28;20462;-62
2022/07/21 11:33:38;;;;;;;4.23;2.97;;;28.80;86.30;;;;;;5053814;28;20465;-63
2022/07/21 11:36:06;;;;;;;4.97;3.00;;;29.10;87.10;;;;;;5053661;28;20450;-66
2022/07/21 11:38:34;;;;;;;5.30;3.23;;;29.30;85.20;;;;;;5053455;28;20461;-66
2022/07/21 11:41:17;;;;;;;5.57;2.90;;;29.30;83.90;;;;;;5053473;28;20462;-66
2022/07/21 11:43:46;;;;;;;5.90;3.43;;;29.40;84.20;;;;;;5053493;28;20485;-66
2022/07/21 11:46:13;;;;;;;4.30;2.97;;;29.40;83.10;;;;;;5053580;28;20847;-66
2022/07/21 11:48:40;;;;;;;5.17;3.33;;;29.00;84.70;;;;;;5053387;28;20457;-67
2022/07/21 11:51:08;;;;;;;5.10;3.30;;;28.80;87.10;;;;;;5053516;28;20461;-67
2022/07/21 11:53:35;;;;;;;5.80;3.40;;;28.50;87.30;;;;;;5053363;28;20462;-67
2022/07/21 11:56:13;;;;;;;4.00;2.80;;;28.30;89.20;;;;;;5053385;28;20457;-67
2022/07/21 11:58:42;;;;;;;5.00;3.27;;;28.30;89.60;;;;;;5051853;28;20461;-67
2022/07/21 12:01:11;;;;;;;4.97;3.43;;;28.60;89.80;;;;;;5053160;28;20458;-66
2022/07/21 12:03:49;;;;;;;4.20;3.00;;;29.00;87.10;;;;;;5051934;28;20486;-66
2022/07/21 12:06:16;;;;;;;5.97;3.37;;;29.50;89.10;;;;;;5053373;28;20461;-67
2022/07/21 12:08:45;;;;;;;5.23;3.10;;;30.00;86.70;;;;;;5053189;28;20465;-66
2022/07/21 12:11:13;;;;;;;5.93;3.43;;;30.00;84.90;;;;;;5052843;28;20458;-66
2022/07/21 12:13:58;;;;;;;7.50;3.73;;;29.80;85.10;;;;;;5052635;28;20458;-66
2022/07/21 12:16:25;;;;;;;5.43;3.30;;;29.70;84.90;;;;;;5052479;28;20980;-65
2022/07/21 12:19:11;;;;;;;4.70;2.90;;;29.40;87.10;;;;;;5052878;28;20464;-66
2022/07/21 12:21:49;;;;;;;5.73;3.23;;;29.10;85.40;;;;;;5052612;28;20884;-66
2022/07/21 12:24:17;;;;;;;5.57;3.50;;;28.80;86.80;;;;;;5052516;28;20975;-62
2022/07/21 12:26:44;;;;;;;8.20;3.53;;;28.50;87.20;;;;;;5052520;28;20480;-62
2022/07/21 12:29:26;;;;;;;5.27;3.20;;;28.30;88.60;;;;;;5052596;28;20464;-62
2022/07/21 12:31:55;;;;;;;4.23;3.27;;;28.40;88.70;;;;;;5052698;28;20540;-62
2022/07/21 12:34:24;;;;;;;5.37;3.03;;;28.80;88.20;;;;;;5052670;28;20454;-62
2022/07/21 12:36:51;;;;;;;3.77;3.03;;;29.20;85.50;;;;;;5052588;28;20932;-62
2022/07/21 12:42:07;;;;;;;6.33;3.37;;;29.10;85.80;;;;;;5052674;28;20441;-62
2022/07/21 12:44:37;;;;;;;5.73;3.07;;;29.00;85.30;;;;;;5052323;28;20485;-62
2022/07/21 12:47:14;;;;;;;6.50;3.67;;;29.20;85.70;;;;;;5052373;28;20454;-64
2022/07/21 12:49:56;;;;;;;4.10;2.90;;;29.70;85.10;;;;;;5052466;28;20461;-62
2022/07/21 12:52:24;;;;;;;4.77;3.30;;;30.10;85.70;;;;;;5051508;28;20489;-62
2022/07/21 12:54:51;;;;;;;3.40;2.80;;;30.50;81.90;;;;;;5052432;28;20465;-63
2022/07/21 12:57:18;;;;;;;5.03;3.23;;;30.70;80.90;;;;;;5052164;28;20965;-65
2022/07/21 12:59:47;;;;;;;5.27;3.40;;;30.90;80.10;;;;;;5039791;28;20821;-63
2022/07/21 13:02:14;;;;;;;5.63;3.27;;;31.20;80.60;;;;;;5032380;28;20466;-63